createdAt,value
2023-02-15T01:03:14.619Z,1203.00
2023-02-15T01:04:14.683Z,1200.00
2023-02-15T01:05:14.684Z,1190.00
2023-02-15T01:06:14.657Z,1185.00
2023-02-15T01:07:14.692Z,1184.00
2023-02-15T01:08:14.721Z,1185.00
2023-02-15T01:09:14.740Z,1179.00
2023-02-15T01:10:14.721Z,1181.00
2023-02-15T01:11:14.767Z,1175.00
2023-02-15T01:12:14.815Z,1172.00
2023-02-15T01:13:14.780Z,1171.00
2023-02-15T01:14:14.808Z,1160.00
2023-02-15T01:15:14.852Z,1164.00
2023-02-15T01:16:14.949Z,1153.00
2023-02-15T01:17:14.993Z,1150.00
2023-02-15T01:18:15.058Z,1151.00
2023-02-15T01:19:15.105Z,1142.00
2023-02-15T01:20:15.158Z,1145.00
2023-02-15T01:21:15.212Z,1142.00
2023-02-15T01:22:15.280Z,1139.00
2023-02-15T01:23:15.368Z,1137.00
2023-02-15T01:24:15.398Z,1135.00
2023-02-15T01:25:15.487Z,1135.00
2023-02-15T01:26:15.527Z,1131.00
2023-02-15T01:27:15.708Z,1127.00
2023-02-15T01:28:15.663Z,1123.00
2023-02-15T01:29:15.744Z,1125.00
2023-02-15T01:30:15.781Z,1119.00
2023-02-15T01:31:15.892Z,1109.00
2023-02-15T01:32:15.765Z,1113.00
2023-02-15T01:33:15.812Z,1111.00
2023-02-15T01:34:15.827Z,1102.00
2023-02-15T01:35:15.810Z,1101.00
2023-02-15T01:36:15.824Z,1098.00
2023-02-15T01:37:15.878Z,1098.00
2023-02-15T01:38:15.942Z,1089.00
2023-02-15T01:39:16.012Z,1087.00
2023-02-15T01:40:16.117Z,1093.00
2023-02-15T01:41:16.149Z,1082.00
2023-02-15T01:42:16.247Z,1084.00
2023-02-15T01:43:16.296Z,1085.00
2023-02-15T01:44:16.327Z,1078.00
2023-02-15T01:45:16.407Z,1075.00
2023-02-15T01:46:16.478Z,1077.00
2023-02-15T01:47:16.522Z,1079.00
2023-02-15T01:48:16.579Z,1067.00
2023-02-15T01:49:16.671Z,1071.00
2023-02-15T01:50:16.699Z,1067.00
2023-02-15T01:51:16.775Z,1067.00
2023-02-15T01:52:16.816Z,1064.00
2023-02-15T01:53:16.929Z,1058.00
2023-02-15T01:54:16.931Z,1058.00
2023-02-15T01:55:17.025Z,1060.00
2023-02-15T01:56:17.083Z,1047.00
2023-02-15T01:57:17.115Z,1047.00
2023-02-15T01:58:17.216Z,1046.00
2023-02-15T01:59:17.241Z,1042.00
2023-02-15T02:00:17.320Z,1040.00
2023-02-15T02:01:17.438Z,1034.00
2023-02-15T02:02:17.519Z,1037.00
2023-02-15T02:03:17.545Z,1034.00
2023-02-15T02:04:17.539Z,1028.00
2023-02-15T02:05:17.608Z,1022.00
2023-02-15T02:06:17.664Z,1017.00
2023-02-15T02:07:17.735Z,1015.00
2023-02-15T02:08:17.805Z,1014.00
2023-02-15T02:09:17.888Z,1013.00
2023-02-15T02:10:17.935Z,1012.00
2023-02-15T02:11:18.005Z,998.00
2023-02-15T02:12:18.048Z,1002.00
2023-02-15T02:13:18.118Z,1000.00
2023-02-15T02:14:18.155Z,1000.00
2023-02-15T02:15:18.252Z,998.00
2023-02-15T02:16:18.285Z,996.00
2023-02-15T02:17:18.281Z,990.00
2023-02-15T02:18:18.369Z,988.00
2023-02-15T02:20:18.510Z,987.00
2023-02-15T02:21:18.533Z,982.00
2023-02-15T02:22:18.592Z,977.00
2023-02-15T02:33:19.209Z,951.00
2023-02-15T02:34:19.286Z,949.00
2023-02-15T03:35:22.653Z,797.00
2023-02-15T03:36:22.738Z,789.00
2023-02-15T03:37:22.780Z,786.00
2023-02-15T03:38:22.849Z,781.00
2023-02-15T03:39:22.916Z,777.00
2023-02-15T03:40:22.977Z,778.00
2023-02-15T03:41:23.028Z,769.00
2023-02-15T03:42:23.082Z,772.00
2023-02-15T03:43:23.155Z,772.00
2023-02-15T03:44:23.241Z,765.00
2023-02-15T03:45:23.305Z,762.00
2023-02-15T03:46:23.351Z,769.00
2023-02-15T03:47:23.429Z,762.00
2023-02-15T03:48:23.469Z,757.00
2023-02-15T03:49:23.553Z,754.00
2023-02-15T03:50:23.578Z,753.00
2023-02-15T03:51:23.645Z,753.00
2023-02-15T03:52:23.687Z,747.00
2023-02-15T03:53:23.746Z,745.00
2023-02-15T03:54:23.812Z,739.00
2023-02-15T03:55:23.887Z,740.00
2023-02-15T03:56:23.924Z,736.00
2023-02-15T03:57:24.019Z,734.00
2023-02-15T03:58:24.085Z,737.00
2023-02-15T03:59:24.155Z,739.00
2023-02-15T04:00:24.214Z,730.00
2023-02-15T04:01:24.302Z,726.00
2023-02-15T04:02:24.318Z,721.00
2023-02-15T04:03:24.427Z,727.00
2023-02-15T04:04:25.638Z,716.00
2023-02-15T04:05:24.515Z,713.00
2023-02-15T04:06:24.580Z,709.00
2023-02-15T04:07:24.638Z,713.00
2023-02-15T04:08:24.679Z,713.00
2023-02-15T04:09:24.691Z,707.00
2023-02-15T04:10:24.700Z,702.00
2023-02-15T04:11:24.747Z,698.00
2023-02-15T04:12:24.780Z,697.00
2023-02-15T04:13:24.786Z,698.00
2023-02-15T04:14:24.785Z,695.00
2023-02-15T04:15:24.834Z,689.00
2023-02-15T04:16:24.951Z,692.00
2023-02-15T04:17:24.957Z,688.00
2023-02-15T04:18:25.039Z,682.00
2023-02-15T04:19:25.067Z,684.00
2023-02-15T04:20:25.145Z,678.00
2023-02-15T04:21:25.139Z,678.00
2023-02-15T04:22:25.143Z,671.00
2023-02-15T04:23:25.181Z,675.00
2023-02-15T04:24:25.203Z,677.00
2023-02-15T04:25:25.234Z,668.00
2023-02-15T04:26:25.263Z,670.00
2023-02-15T04:27:25.295Z,668.00
2023-02-15T04:28:25.346Z,668.00
2023-02-15T04:29:25.400Z,667.00
2023-02-15T04:30:25.527Z,665.00
2023-02-15T04:31:25.553Z,661.00
2023-02-15T04:32:25.497Z,659.00
2023-02-15T04:33:25.528Z,660.00
2023-02-15T04:34:25.520Z,657.00
2023-02-15T05:17:27.056Z,621.00
2023-02-15T05:18:27.075Z,622.00
2023-02-15T05:19:27.155Z,622.00
2023-02-15T05:20:27.226Z,617.00
2023-02-15T05:21:27.275Z,620.00
2023-02-15T05:22:27.308Z,618.00
2023-02-15T05:23:27.367Z,615.00
2023-02-15T05:24:27.415Z,617.00
2023-02-15T05:25:27.489Z,615.00
2023-02-15T05:26:27.536Z,614.00
2023-02-15T05:27:27.571Z,613.00
2023-02-15T05:28:27.611Z,608.00
2023-02-15T05:29:27.630Z,611.00
2023-02-15T05:30:27.867Z,611.00
2023-02-15T05:31:27.840Z,608.00
2023-02-15T05:32:27.893Z,608.00
2023-02-15T05:33:27.729Z,608.00
2023-02-15T05:34:27.753Z,608.00
2023-02-15T05:35:27.765Z,604.00
2023-02-15T05:36:27.841Z,605.00
2023-02-15T05:38:27.942Z,603.00
2023-02-15T05:39:28.015Z,602.00
2023-02-15T05:40:28.066Z,601.00
2023-02-15T05:41:28.094Z,602.00
2023-02-15T05:42:28.169Z,600.00
2023-02-15T05:43:28.214Z,599.00
2023-02-15T05:44:28.287Z,596.00
2023-02-15T05:45:28.301Z,595.00
2023-02-15T05:46:28.518Z,595.00
2023-02-15T05:47:28.427Z,597.00
2023-02-15T05:49:28.553Z,594.00
2023-02-15T05:50:28.629Z,595.00
2023-02-15T05:51:28.664Z,592.00
2023-02-15T05:52:28.698Z,593.00
2023-02-15T05:53:28.787Z,591.00
2023-02-15T05:54:28.833Z,592.00
2023-02-15T05:55:28.887Z,589.00
2023-02-15T05:56:28.909Z,591.00
2023-02-15T05:57:29.007Z,592.00
2023-02-15T05:58:29.054Z,589.00
2023-02-15T05:59:29.119Z,589.00
2023-02-15T06:00:29.150Z,586.00
2023-02-15T06:01:36.270Z,587.00
2023-02-15T06:02:29.251Z,588.00
2023-02-15T06:03:29.319Z,588.00
2023-02-15T06:04:29.158Z,587.00
2023-02-15T06:05:29.175Z,581.00
2023-02-15T06:06:29.158Z,580.00
2023-02-15T06:07:30.076Z,580.00
2023-02-15T06:08:29.175Z,577.00
2023-02-15T06:09:29.143Z,579.00
2023-02-15T06:10:29.146Z,578.00
2023-02-15T06:11:29.124Z,577.00
2023-02-15T06:12:29.119Z,576.00
2023-02-15T06:13:29.131Z,577.00
2023-02-15T06:14:29.120Z,574.00
2023-02-15T06:15:29.184Z,575.00
2023-02-15T06:16:29.114Z,572.00
2023-02-15T06:17:29.128Z,573.00
2023-02-15T06:18:29.072Z,573.00
2023-02-15T06:19:29.084Z,568.00
2023-02-15T06:20:29.074Z,569.00
2023-02-15T06:21:29.078Z,571.00
2023-02-15T06:22:29.040Z,571.00
2023-02-15T06:23:29.053Z,572.00
2023-02-15T06:24:29.047Z,570.00
2023-02-15T06:25:29.050Z,569.00
2023-02-15T06:26:29.017Z,570.00
2023-02-15T06:27:29.012Z,568.00
2023-02-15T06:28:29.032Z,567.00
2023-02-15T06:29:28.994Z,564.00
2023-02-15T06:30:29.037Z,564.00
2023-02-15T06:31:29.076Z,563.00
2023-02-15T06:32:28.997Z,562.00
2023-02-15T06:33:29.009Z,562.00
2023-02-15T06:34:28.970Z,559.00
2023-02-15T06:35:29.032Z,558.00
2023-02-15T06:36:29.038Z,558.00
2023-02-15T06:37:29.086Z,557.00
2023-02-15T06:38:29.135Z,556.00
2023-02-15T06:39:29.167Z,556.00
2023-02-15T06:40:29.188Z,556.00
2023-02-15T06:41:29.298Z,554.00
2023-02-15T06:42:29.313Z,552.00
2023-02-15T06:43:29.399Z,550.00
2023-02-15T06:44:29.413Z,550.00
2023-02-15T06:45:29.442Z,553.00
2023-02-15T06:46:36.519Z,552.00
2023-02-15T06:47:29.503Z,553.00
2023-02-15T06:48:29.515Z,553.00
2023-02-15T06:49:29.485Z,552.00
2023-02-15T06:50:29.446Z,551.00
2023-02-15T06:51:29.460Z,546.00
2023-02-15T06:52:29.470Z,547.00
2023-02-15T06:53:29.473Z,542.00
2023-02-15T06:54:29.440Z,544.00
2023-02-15T06:55:29.438Z,544.00
2023-02-15T06:56:29.453Z,542.00
2023-02-15T06:57:29.461Z,541.00
2023-02-15T06:58:29.434Z,541.00
2023-02-15T06:59:29.413Z,541.00
2023-02-15T07:00:29.416Z,542.00
2023-02-15T07:01:29.425Z,540.00
2023-02-15T07:02:29.433Z,540.00
2023-02-15T07:03:29.404Z,536.00
2023-02-15T07:04:29.553Z,535.00
2023-02-15T07:05:29.506Z,534.00
2023-02-15T07:06:29.367Z,532.00
2023-02-15T07:07:29.363Z,532.00
2023-02-15T07:08:29.371Z,527.00
2023-02-15T07:09:29.332Z,528.00
2023-02-15T07:10:29.342Z,527.00
2023-02-15T07:11:29.316Z,529.00
2023-02-15T07:12:29.314Z,524.00
2023-02-15T07:13:29.357Z,524.00
2023-02-15T07:14:29.303Z,521.00
2023-02-15T07:15:29.317Z,520.00
2023-02-15T07:16:29.338Z,525.00
2023-02-15T07:17:36.833Z,518.00
2023-02-15T07:18:30.277Z,519.00
2023-02-15T07:19:29.255Z,519.00
2023-02-15T07:20:29.268Z,517.00
2023-02-15T07:21:29.281Z,518.00
2023-02-15T07:22:29.248Z,516.00
2023-02-15T07:23:29.287Z,514.00
2023-02-15T07:24:29.266Z,509.00
2023-02-15T07:25:29.239Z,508.00
2023-02-15T07:26:29.238Z,509.00
2023-02-15T07:27:29.314Z,511.00
2023-02-15T07:28:29.360Z,509.00
2023-02-15T07:29:29.408Z,504.00
2023-02-15T07:30:29.486Z,500.00
2023-02-15T07:31:29.513Z,501.00
2023-02-15T07:32:29.594Z,500.00
2023-02-15T07:33:29.642Z,500.00
2023-02-15T07:34:29.649Z,500.00
2023-02-15T07:35:29.679Z,500.00
2023-02-15T07:36:29.718Z,500.00
2023-02-15T07:37:29.752Z,500.00
2023-02-15T07:38:29.799Z,500.00
2023-02-15T07:39:29.836Z,500.00
2023-02-15T07:40:29.870Z,500.00
2023-02-15T07:41:29.905Z,502.00
2023-02-15T07:42:29.954Z,503.00
2023-02-15T07:43:30.019Z,503.00
2023-02-15T07:44:30.022Z,506.00
2023-02-15T07:45:30.031Z,503.00
2023-02-15T07:46:30.136Z,501.00
2023-02-15T07:47:30.085Z,501.00
2023-02-15T07:48:30.149Z,501.00
2023-02-15T07:49:30.164Z,500.00
2023-02-15T07:50:30.243Z,502.00
2023-02-15T07:51:30.174Z,501.00
2023-02-15T07:52:30.389Z,502.00
2023-02-15T07:53:30.231Z,500.00
2023-02-15T07:54:30.237Z,501.00
2023-02-15T07:55:30.240Z,506.00
2023-02-15T07:56:31.332Z,505.00
2023-02-15T07:57:30.258Z,502.00
2023-02-15T07:58:30.260Z,500.00
2023-02-15T07:59:30.274Z,503.00
2023-02-15T08:00:30.308Z,501.00
2023-02-15T08:01:30.347Z,502.00
2023-02-15T08:02:30.324Z,503.00
2023-02-15T08:03:30.437Z,500.00
2023-02-15T08:04:30.364Z,504.00
2023-02-15T08:05:30.324Z,509.00
2023-02-15T08:06:30.373Z,504.00
2023-02-15T08:07:30.383Z,503.00
2023-02-15T08:08:30.411Z,505.00
2023-02-15T08:09:30.396Z,503.00
2023-02-15T08:10:30.375Z,499.00
2023-02-15T08:11:30.419Z,501.00
2023-02-15T08:12:30.460Z,501.00
2023-02-15T08:13:30.508Z,501.00
2023-02-15T08:14:30.613Z,500.00
2023-02-15T08:15:30.611Z,500.00
2023-02-15T08:16:30.775Z,500.00
2023-02-15T08:17:30.662Z,503.00
2023-02-15T08:18:30.773Z,500.00
2023-02-15T08:19:30.803Z,502.00
2023-02-15T08:20:30.825Z,501.00
2023-02-15T08:21:30.903Z,502.00
2023-02-15T08:22:30.903Z,501.00
2023-02-15T08:23:30.945Z,501.00
2023-02-15T08:24:30.989Z,502.00
2023-02-15T08:25:31.036Z,500.00
2023-02-15T08:26:31.009Z,500.00
2023-02-15T08:27:31.048Z,499.00
2023-02-15T08:28:31.042Z,500.00
2023-02-15T08:29:31.078Z,502.00
2023-02-15T08:30:31.038Z,500.00
2023-02-15T08:31:31.136Z,506.00
2023-02-15T08:32:31.042Z,502.00
2023-02-15T08:33:31.123Z,504.00
2023-02-15T08:34:31.120Z,502.00
2023-02-15T08:35:31.200Z,501.00
2023-02-15T08:36:31.211Z,500.00
2023-02-15T08:37:31.220Z,500.00
2023-02-15T08:38:33.422Z,500.00
2023-02-15T08:39:31.302Z,501.00
2023-02-15T08:40:31.305Z,503.00
2023-02-15T08:41:31.315Z,503.00
2023-02-15T08:42:31.331Z,502.00
2023-02-15T08:43:31.358Z,502.00
2023-02-15T08:44:31.372Z,505.00
2023-02-15T08:45:31.411Z,506.00
2023-02-15T08:46:31.416Z,500.00
2023-02-15T08:47:31.421Z,507.00
2023-02-15T08:48:31.513Z,506.00
2023-02-15T08:49:31.471Z,504.00
2023-02-15T08:50:31.508Z,505.00
2023-02-15T08:51:31.521Z,503.00
2023-02-15T08:52:31.527Z,500.00
2023-02-15T08:53:31.545Z,500.00
2023-02-15T08:54:31.594Z,508.00
2023-02-15T08:55:31.563Z,510.00
2023-02-15T08:56:31.578Z,513.00
2023-02-15T08:57:31.613Z,510.00
2023-02-15T08:58:31.643Z,515.00
2023-02-15T08:59:31.636Z,549.00
2023-02-15T09:00:31.656Z,590.00
2023-02-15T09:01:31.745Z,631.00
2023-02-15T09:02:31.772Z,656.00
2023-02-15T09:03:31.668Z,708.00
2023-02-15T09:04:31.712Z,776.00
2023-02-15T09:05:31.678Z,844.00
2023-02-15T09:06:31.694Z,911.00
2023-02-15T09:07:31.700Z,948.00
2023-02-15T09:08:31.742Z,1003.00
2023-02-15T09:09:31.702Z,1057.00
2023-02-15T09:10:31.728Z,1095.00
2023-02-15T09:11:31.750Z,1134.00
2023-02-15T09:12:31.766Z,1165.00
2023-02-15T09:13:31.728Z,1206.00
2023-02-15T09:14:31.749Z,1253.00
2023-02-15T09:15:31.743Z,1314.00
2023-02-15T09:16:31.878Z,1342.00
2023-02-15T09:17:31.805Z,1396.00
2023-02-15T09:18:31.808Z,1428.00
2023-02-15T09:19:31.853Z,1466.00
2023-02-15T09:20:31.820Z,1497.00
2023-02-15T09:21:31.831Z,1537.00
2023-02-15T09:22:31.872Z,1543.00
2023-02-15T09:23:31.903Z,1596.00
2023-02-15T09:24:31.889Z,1625.00
2023-02-15T09:25:31.878Z,1654.00
2023-02-15T09:26:31.908Z,1683.00
2023-02-15T09:27:32.007Z,1705.00
2023-02-15T09:28:32.015Z,1714.00
2023-02-15T09:29:32.079Z,1724.00
2023-02-15T09:30:32.198Z,1720.00
2023-02-15T09:31:32.291Z,1741.00
2023-02-15T09:32:32.106Z,1756.00
2023-02-15T09:33:32.161Z,1758.00
2023-02-15T09:34:34.112Z,1764.00
2023-02-15T09:35:32.117Z,1791.00
2023-02-15T09:36:32.129Z,1780.00
2023-02-15T09:37:32.099Z,1780.00
2023-02-15T09:38:32.110Z,1781.00
2023-02-15T09:39:32.176Z,1776.00
2023-02-15T09:40:32.088Z,1763.00
2023-02-15T09:41:32.102Z,1767.00
2023-02-15T09:42:32.116Z,1767.00
2023-02-15T09:43:32.074Z,1761.00
2023-02-15T09:44:32.070Z,1754.00
2023-02-15T09:45:32.095Z,1753.00
2023-02-15T09:46:32.070Z,1739.00
2023-02-15T09:47:32.068Z,1741.00
2023-02-15T09:48:32.070Z,1734.00
2023-02-15T09:49:32.057Z,1723.00
2023-02-15T09:50:32.020Z,1727.00
2023-02-15T09:51:32.057Z,1722.00
2023-02-15T09:52:32.045Z,1741.00
2023-02-15T09:53:31.996Z,1755.00
2023-02-15T09:54:32.036Z,1770.00
2023-02-15T09:55:32.020Z,1792.00
2023-02-15T09:56:31.999Z,1806.00
2023-02-15T09:57:31.962Z,1821.00
2023-02-15T09:58:31.997Z,1841.00
2023-02-15T09:59:31.983Z,1843.00
2023-02-15T10:00:31.956Z,1858.00
2023-02-15T10:01:32.022Z,1868.00
2023-02-15T10:02:31.925Z,1888.00
2023-02-15T10:03:31.968Z,1915.00
2023-02-15T10:04:32.033Z,1924.00
2023-02-15T10:05:31.915Z,1944.00
2023-02-15T10:06:31.957Z,1952.00
2023-02-15T10:07:31.895Z,1961.00
2023-02-15T10:08:31.913Z,1965.00
2023-02-15T10:09:31.901Z,1972.00
2023-02-15T10:10:31.894Z,1963.00
2023-02-15T10:11:31.912Z,1988.00
2023-02-15T10:12:31.891Z,1999.00
2023-02-15T10:13:31.873Z,2014.00
2023-02-15T10:14:31.905Z,2010.00
2023-02-15T10:15:31.893Z,2032.00
2023-02-15T10:16:31.929Z,2043.00
2023-02-15T10:17:31.835Z,2048.00
2023-02-15T10:18:31.828Z,2055.00
2023-02-15T10:19:31.831Z,2073.00
2023-02-15T10:20:31.851Z,2087.00
2023-02-15T10:21:31.799Z,2096.00
2023-02-15T10:22:31.798Z,2110.00
2023-02-15T10:23:31.825Z,2120.00
2023-02-15T10:24:31.786Z,2133.00
2023-02-15T10:25:31.838Z,2125.00
2023-02-15T10:26:31.780Z,2140.00
2023-02-15T10:27:31.788Z,2153.00
2023-02-15T10:28:31.743Z,2148.00
2023-02-15T10:29:31.797Z,2176.00
2023-02-15T10:30:32.659Z,2184.00
2023-02-15T10:31:31.820Z,2183.00
2023-02-15T10:32:31.765Z,2185.00
2023-02-15T10:33:31.716Z,2196.00
2023-02-15T10:34:31.722Z,2188.00
2023-02-15T10:35:31.702Z,2190.00
2023-02-15T10:36:31.747Z,2188.00
2023-02-15T10:37:31.704Z,2184.00
2023-02-15T10:38:31.688Z,2178.00
2023-02-15T10:39:31.717Z,2177.00
2023-02-15T10:40:31.720Z,2169.00
2023-02-15T11:08:31.680Z,1162.00
2023-02-15T11:09:31.689Z,1130.00
2023-02-15T11:10:31.682Z,1099.00
2023-02-15T11:11:31.958Z,1066.00
2023-02-15T11:12:31.750Z,1069.00
2023-02-15T11:13:31.791Z,1077.00
2023-02-15T11:14:31.841Z,1086.00
2023-02-15T11:15:31.946Z,1090.00
2023-02-15T11:16:31.874Z,1102.00
2023-02-15T11:17:31.969Z,1096.00
2023-02-15T11:18:32.037Z,1088.00
2023-02-15T11:19:32.039Z,1083.00
2023-02-15T11:20:32.143Z,1079.00
2023-02-15T11:21:32.153Z,1075.00
2023-02-15T11:22:32.232Z,1059.00
2023-02-15T11:23:32.265Z,1057.00
2023-02-15T11:24:32.331Z,1064.00
2023-02-15T11:25:32.381Z,1052.00
2023-02-15T11:26:32.422Z,1033.00
2023-02-15T11:27:32.508Z,1039.00
2023-02-15T11:28:32.510Z,1029.00
2023-02-15T11:29:32.543Z,1009.00
2023-02-15T11:30:32.668Z,994.00
2023-02-15T11:31:32.756Z,965.00
2023-02-15T11:32:32.704Z,941.00
2023-02-15T11:33:32.753Z,903.00
2023-02-15T11:34:32.800Z,863.00
2023-02-15T11:35:32.861Z,834.00
2023-02-15T11:36:32.905Z,822.00
2023-02-15T11:37:32.968Z,789.00
2023-02-15T11:38:33.020Z,760.00
2023-02-15T11:39:33.045Z,730.00
2023-02-15T11:40:33.132Z,729.00
2023-02-15T11:41:33.204Z,702.00
2023-02-15T11:42:33.229Z,698.00
2023-02-15T11:43:33.294Z,706.00
2023-02-15T11:44:33.353Z,702.00
2023-02-15T11:45:33.399Z,690.00
2023-02-15T11:46:33.488Z,673.00
2023-02-15T11:47:33.595Z,659.00
2023-02-15T11:48:33.567Z,662.00
2023-02-15T11:49:33.563Z,653.00
2023-02-15T11:50:33.641Z,652.00
2023-02-15T11:51:33.688Z,642.00
2023-02-15T11:52:33.721Z,634.00
2023-02-15T11:53:33.766Z,628.00
2023-02-15T11:54:33.808Z,622.00
2023-02-15T11:55:33.766Z,617.00
2023-02-15T11:56:33.825Z,606.00
2023-02-15T11:57:33.832Z,603.00
2023-02-15T11:58:33.830Z,597.00
2023-02-15T11:59:33.993Z,590.00
2023-02-15T12:00:33.884Z,586.00
2023-02-15T12:01:33.911Z,578.00
2023-02-15T12:02:33.915Z,559.00
2023-02-15T12:03:33.946Z,553.00
2023-02-15T12:04:33.947Z,550.00
2023-02-15T12:05:33.921Z,535.00
2023-02-15T12:06:33.915Z,532.00
2023-02-15T12:07:33.919Z,525.00
2023-02-15T12:08:34.009Z,516.00
2023-02-15T12:09:34.024Z,505.00
2023-02-15T12:10:33.977Z,500.00
2023-02-15T12:11:33.973Z,503.00
2023-02-15T12:12:34.035Z,502.00
2023-02-15T12:13:34.043Z,501.00
2023-02-15T12:14:34.050Z,502.00
2023-02-15T12:15:34.017Z,500.00
2023-02-15T12:16:34.115Z,504.00
2023-02-15T12:17:34.070Z,501.00
2023-02-15T12:18:34.074Z,502.00
2023-02-15T12:19:34.042Z,504.00
2023-02-15T12:20:34.041Z,500.00
2023-02-15T12:21:34.094Z,500.00
2023-02-15T12:22:34.144Z,503.00
2023-02-15T12:23:34.157Z,501.00
2023-02-15T12:24:34.244Z,503.00
2023-02-15T12:25:34.248Z,500.00
2023-02-15T12:26:34.267Z,500.00
2023-02-15T12:27:34.277Z,504.00
2023-02-15T12:28:34.291Z,501.00
2023-02-15T12:29:34.294Z,500.00
2023-02-15T12:30:34.368Z,501.00
2023-02-15T12:31:34.372Z,501.00
2023-02-15T12:32:34.307Z,515.00
2023-02-15T12:33:34.303Z,547.00
2023-02-15T12:34:34.349Z,559.00
2023-02-15T12:35:34.400Z,581.00
2023-02-15T12:36:34.419Z,591.00
2023-02-15T12:37:34.454Z,605.00
2023-02-15T12:38:34.450Z,616.00
2023-02-15T12:39:34.526Z,628.00
2023-02-15T12:40:34.536Z,648.00
2023-02-15T12:41:34.566Z,663.00
2023-02-15T12:42:34.624Z,667.00
2023-02-15T12:43:34.664Z,672.00
2023-02-15T12:44:34.713Z,677.00
2023-02-15T12:45:34.732Z,663.00
2023-02-15T12:46:38.287Z,663.00
2023-02-15T12:47:34.713Z,697.00
2023-02-15T12:48:40.750Z,691.00
2023-02-15T12:49:35.752Z,695.00
2023-02-15T12:50:35.110Z,693.00
2023-02-15T12:51:34.703Z,665.00
2023-02-15T12:52:34.672Z,648.00
2023-02-15T12:53:34.626Z,643.00
2023-02-15T12:54:34.662Z,635.00
2023-02-15T12:55:34.678Z,632.00
2023-02-15T12:56:34.639Z,639.00
2023-02-15T12:57:34.651Z,644.00
2023-02-15T12:58:34.648Z,637.00
2023-02-15T12:59:34.592Z,634.00
2023-02-15T13:00:34.713Z,633.00
2023-02-15T13:01:34.607Z,629.00
2023-02-15T13:02:34.576Z,621.00
2023-02-15T13:03:34.574Z,622.00
2023-02-15T13:04:34.593Z,627.00
2023-02-15T13:05:34.592Z,640.00
2023-02-15T13:06:34.558Z,646.00
2023-02-15T13:07:34.557Z,639.00
2023-02-15T13:08:34.616Z,637.00
2023-02-15T13:09:34.633Z,637.00
2023-02-15T13:10:34.683Z,635.00
2023-02-15T13:11:34.708Z,632.00
2023-02-15T13:12:34.704Z,629.00
2023-02-15T13:13:34.777Z,512.00
2023-02-15T13:14:34.793Z,400.00
2023-02-15T13:15:34.870Z,400.00
2023-02-15T13:16:35.010Z,400.00
2023-02-15T13:17:34.969Z,400.00
2023-02-15T13:18:34.944Z,400.00
2023-02-15T13:19:34.940Z,400.00
2023-02-15T13:20:34.912Z,400.00
2023-02-15T13:21:34.925Z,400.00
2023-02-15T13:22:34.929Z,447.00
2023-02-15T13:23:36.443Z,518.00
2023-02-15T13:24:34.955Z,526.00
2023-02-15T13:25:34.992Z,491.00
2023-02-15T13:26:35.064Z,473.00
2023-02-15T13:27:35.138Z,419.00
2023-02-15T13:28:35.182Z,535.00
2023-02-15T13:29:36.237Z,500.00
2023-02-15T13:30:35.398Z,586.00
2023-02-15T13:31:35.554Z,483.00
2023-02-15T13:32:35.378Z,415.00
2023-02-15T13:33:35.431Z,480.00
2023-02-15T13:34:35.412Z,499.00
2023-02-15T13:35:35.444Z,500.00
2023-02-15T13:36:35.441Z,453.00
2023-02-15T13:37:35.442Z,511.00
2023-02-15T13:38:35.487Z,583.00
2023-02-15T13:39:35.477Z,910.00
2023-02-15T13:40:35.571Z,798.00
2023-02-15T13:41:36.760Z,1260.00
2023-02-15T13:42:35.587Z,1567.00
2023-02-15T13:43:35.605Z,2192.00
2023-02-15T13:44:35.657Z,2104.00
2023-02-15T13:45:35.734Z,2350.00
2023-02-15T13:46:35.780Z,2667.00
2023-02-15T13:47:35.854Z,2737.00
2023-02-15T13:48:46.931Z,2916.00
2023-02-15T13:49:36.905Z,1851.00
2023-02-15T13:50:35.892Z,2020.00
2023-02-15T13:51:35.854Z,2244.00
2023-02-15T13:52:35.896Z,2013.00
2023-02-15T13:53:36.453Z,2993.00
2023-02-15T13:54:35.877Z,2953.00
2023-02-15T13:55:35.886Z,2430.00
2023-02-15T13:56:35.844Z,2007.00
2023-02-15T13:57:35.813Z,1835.00
2023-02-15T13:58:35.821Z,1895.00
2023-02-15T13:59:35.875Z,2172.00
2023-02-15T14:00:35.914Z,2085.00
2023-02-15T14:01:35.945Z,1892.00
2023-02-15T14:02:36.028Z,1660.00
2023-02-15T14:03:36.088Z,1641.00
2023-02-15T14:04:36.118Z,2928.00
2023-02-15T14:05:36.157Z,2260.00
2023-02-15T14:06:36.146Z,2454.00
2023-02-15T14:07:36.165Z,2123.00
2023-02-15T14:08:36.166Z,1925.00
2023-02-15T14:09:36.133Z,2152.00
2023-02-15T14:10:36.177Z,2145.00
2023-02-15T14:11:36.282Z,2312.00
2023-02-15T14:12:36.276Z,3395.00
2023-02-15T14:13:36.365Z,4431.00
2023-02-15T14:14:36.334Z,5116.00
2023-02-15T14:15:36.347Z,5702.00
2023-02-15T14:16:36.393Z,6337.00
2023-02-15T14:17:36.397Z,6780.00
2023-02-15T14:18:36.370Z,7187.00
2023-02-15T14:19:36.375Z,7493.00
2023-02-15T14:20:36.388Z,7739.00
2023-02-15T14:21:36.413Z,7940.00
2023-02-15T14:22:36.517Z,8141.00
2023-02-15T14:23:36.520Z,8325.00
2023-02-15T14:24:36.548Z,8474.00
2023-02-15T14:25:36.557Z,8621.00
2023-02-15T14:26:36.547Z,8751.00
2023-02-15T14:27:36.555Z,8861.00
2023-02-15T14:28:36.576Z,9000.00
2023-02-15T14:29:36.565Z,9101.00
2023-02-15T14:30:36.677Z,9197.00
2023-02-15T14:31:36.712Z,9263.00
2023-02-15T14:32:36.629Z,9325.00
2023-02-15T14:33:37.024Z,9390.00
2023-02-15T14:34:36.807Z,9467.00
2023-02-15T14:35:36.860Z,9522.00
2023-02-15T14:36:36.872Z,9557.00
2023-02-15T14:37:36.979Z,9601.00
2023-02-15T14:38:36.993Z,9663.00
2023-02-15T14:39:37.037Z,9689.00
2023-02-15T14:40:37.107Z,9742.00
2023-02-15T14:41:37.158Z,9775.00
2023-02-15T14:42:37.211Z,9797.00
2023-02-15T14:43:37.224Z,9823.00
2023-02-15T14:44:37.317Z,9848.00
2023-02-15T14:45:37.345Z,9861.00
2023-02-15T14:46:37.350Z,9871.00
2023-02-15T14:47:37.393Z,9901.00
2023-02-15T14:48:37.452Z,9923.00
2023-02-15T14:49:37.527Z,9936.00
2023-02-15T14:50:37.491Z,9948.00
2023-02-15T14:51:37.530Z,9950.00
2023-02-15T14:52:37.547Z,9970.00
2023-02-15T14:53:37.513Z,9998.00
2023-02-15T14:54:37.519Z,10024.00
2023-02-15T14:55:37.531Z,10039.00
2023-02-15T14:56:37.528Z,10064.00
2023-02-15T14:57:37.521Z,10069.00
2023-02-15T14:58:37.525Z,10079.00
2023-02-15T14:59:37.502Z,10107.00
2023-02-15T15:00:37.561Z,10116.00
2023-02-15T15:01:37.599Z,10125.00
2023-02-15T15:02:37.869Z,10136.00
2023-02-15T15:03:37.583Z,10163.00
2023-02-15T15:04:37.588Z,10165.00
2023-02-15T15:05:37.572Z,10160.00
2023-02-15T15:06:37.589Z,10188.00
2023-02-15T15:07:37.596Z,10178.00
2023-02-15T15:08:37.608Z,10196.00
2023-02-15T15:09:37.624Z,10216.00
2023-02-15T15:10:37.619Z,10214.00
2023-02-15T15:11:43.851Z,10231.00
2023-02-15T15:12:38.656Z,10232.00
2023-02-15T15:13:37.643Z,10235.00
2023-02-15T15:14:37.647Z,10243.00
2023-02-15T15:15:39.555Z,10266.00
2023-02-15T15:16:37.869Z,10320.00
2023-02-15T15:17:37.843Z,10352.00
2023-02-15T15:18:37.834Z,10365.00
2023-02-15T15:19:50.906Z,10372.00
2023-02-15T15:20:38.841Z,10374.00
2023-02-15T15:21:37.848Z,10379.00
2023-02-15T15:22:37.847Z,10385.00
2023-02-15T15:23:37.854Z,10414.00
2023-02-15T15:24:37.823Z,10479.00
2023-02-15T15:25:37.822Z,10574.00
2023-02-15T15:26:37.855Z,10603.00
2023-02-15T15:27:37.823Z,10715.00
2023-02-15T15:28:37.783Z,10820.00
2023-02-15T15:29:37.804Z,10845.00
2023-02-15T15:30:37.761Z,10919.00
2023-02-15T15:31:37.897Z,10896.00
2023-02-15T15:32:37.843Z,11053.00
2023-02-15T15:33:37.892Z,11122.00
2023-02-15T15:34:37.951Z,11180.00
2023-02-15T15:35:37.999Z,10956.00
2023-02-15T15:36:38.055Z,11066.00
2023-02-15T15:37:37.978Z,11123.00
2023-02-15T15:38:38.022Z,11175.00
2023-02-15T15:39:38.075Z,11230.00
2023-02-15T15:40:38.058Z,11333.00
2023-02-15T15:41:38.212Z,11344.00
2023-02-15T15:42:38.136Z,11331.00